sensor_id;sensor_type;location;lat;lon;timestamp;P1;durP1;ratioP1;P2;durP2;ratioP2
30818;SDS011;17546;42.674;23.284;2024-03-29T00:02:15;7.63;;;2.15;;
30818;SDS011;17546;42.674;23.284;2024-03-29T00:04:41;9.25;;;2.60;;
30818;SDS011;17546;42.674;23.284;2024-03-29T00:07:06;15.20;;;2.33;;
30818;SDS011;17546;42.674;23.284;2024-03-29T00:09:32;7.93;;;2.30;;
30818;SDS011;17546;42.674;23.284;2024-03-29T00:11:57;12.68;;;2.40;;
30818;SDS011;17546;42.674;23.284;2024-03-29T00:14:22;15.10;;;2.63;;
30818;SDS011;17546;42.674;23.284;2024-03-29T00:16:48;10.35;;;2.55;;
30818;SDS011;17546;42.674;23.284;2024-03-29T00:19:13;9.48;;;2.17;;
30818;SDS011;17546;42.674;23.284;2024-03-29T00:21:39;13.52;;;2.13;;
30818;SDS011;17546;42.674;23.284;2024-03-29T00:24:05;13.15;;;2.45;;
30818;SDS011;17546;42.674;23.284;2024-03-29T00:26:30;10.07;;;1.83;;
30818;SDS011;17546;42.674;23.284;2024-03-29T00:28:55;7.15;;;2.15;;
30818;SDS011;17546;42.674;23.284;2024-03-29T00:31:21;8.32;;;1.92;;
30818;SDS011;17546;42.674;23.284;2024-03-29T00:33:46;7.85;;;1.90;;
30818;SDS011;17546;42.674;23.284;2024-03-29T00:36:12;5.72;;;1.83;;
30818;SDS011;17546;42.674;23.284;2024-03-29T00:38:37;6.00;;;1.95;;
30818;SDS011;17546;42.674;23.284;2024-03-29T00:41:03;8.85;;;1.98;;
30818;SDS011;17546;42.674;23.284;2024-03-29T00:43:28;14.68;;;2.10;;
30818;SDS011;17546;42.674;23.284;2024-03-29T00:45:54;9.95;;;1.63;;
30818;SDS011;17546;42.674;23.284;2024-03-29T00:48:19;5.15;;;1.67;;
30818;SDS011;17546;42.674;23.284;2024-03-29T00:50:45;6.28;;;1.80;;
30818;SDS011;17546;42.674;23.284;2024-03-29T00:53:11;5.47;;;1.55;;
30818;SDS011;17546;42.674;23.284;2024-03-29T00:55:36;7.20;;;1.55;;
30818;SDS011;17546;42.674;23.284;2024-03-29T00:58:02;6.50;;;1.85;;
30818;SDS011;17546;42.674;23.284;2024-03-29T01:00:28;8.52;;;1.55;;
30818;SDS011;17546;42.674;23.284;2024-03-29T01:02:53;8.15;;;1.55;;
30818;SDS011;17546;42.674;23.284;2024-03-29T01:05:19;6.65;;;1.70;;
30818;SDS011;17546;42.674;23.284;2024-03-29T01:07:44;9.15;;;1.50;;
30818;SDS011;17546;42.674;23.284;2024-03-29T01:10:10;6.13;;;1.55;;
30818;SDS011;17546;42.674;23.284;2024-03-29T01:12:35;8.65;;;1.90;;
30818;SDS011;17546;42.674;23.284;2024-03-29T01:15:01;4.43;;;1.60;;
30818;SDS011;17546;42.674;23.284;2024-03-29T01:17:28;12.18;;;1.63;;
30818;SDS011;17546;42.674;23.284;2024-03-29T01:19:54;9.20;;;1.88;;
30818;SDS011;17546;42.674;23.284;2024-03-29T01:22:19;8.18;;;1.70;;
30818;SDS011;17546;42.674;23.284;2024-03-29T01:24:45;5.70;;;1.80;;
30818;SDS011;17546;42.674;23.284;2024-03-29T01:27:10;6.53;;;1.90;;
30818;SDS011;17546;42.674;23.284;2024-03-29T01:29:35;5.03;;;1.35;;
30818;SDS011;17546;42.674;23.284;2024-03-29T01:32:01;4.03;;;1.30;;
30818;SDS011;17546;42.674;23.284;2024-03-29T01:34:26;6.07;;;1.50;;
30818;SDS011;17546;42.674;23.284;2024-03-29T01:36:52;7.05;;;1.42;;
30818;SDS011;17546;42.674;23.284;2024-03-29T01:39:18;7.15;;;1.50;;
30818;SDS011;17546;42.674;23.284;2024-03-29T01:41:46;7.57;;;1.38;;
30818;SDS011;17546;42.674;23.284;2024-03-29T01:44:11;4.90;;;1.90;;
30818;SDS011;17546;42.674;23.284;2024-03-29T01:46:37;7.20;;;1.52;;
30818;SDS011;17546;42.674;23.284;2024-03-29T01:49:03;5.90;;;1.85;;
30818;SDS011;17546;42.674;23.284;2024-03-29T01:51:30;5.18;;;1.60;;
30818;SDS011;17546;42.674;23.284;2024-03-29T01:53:57;8.70;;;1.60;;
30818;SDS011;17546;42.674;23.284;2024-03-29T01:56:24;6.40;;;1.80;;
30818;SDS011;17546;42.674;23.284;2024-03-29T01:58:51;5.45;;;1.30;;
30818;SDS011;17546;42.674;23.284;2024-03-29T02:01:22;4.50;;;1.70;;
30818;SDS011;17546;42.674;23.284;2024-03-29T02:03:54;5.43;;;1.70;;
30818;SDS011;17546;42.674;23.284;2024-03-29T02:06:21;4.57;;;1.75;;
30818;SDS011;17546;42.674;23.284;2024-03-29T02:08:51;8.35;;;2.00;;
30818;SDS011;17546;42.674;23.284;2024-03-29T02:11:25;4.70;;;1.70;;
30818;SDS011;17546;42.674;23.284;2024-03-29T02:13:51;6.38;;;1.52;;
30818;SDS011;17546;42.674;23.284;2024-03-29T02:16:25;6.05;;;1.67;;
30818;SDS011;17546;42.674;23.284;2024-03-29T02:18:51;9.30;;;2.17;;
30818;SDS011;17546;42.674;23.284;2024-03-29T02:21:16;7.88;;;1.95;;
30818;SDS011;17546;42.674;23.284;2024-03-29T02:23:46;8.00;;;2.05;;
30818;SDS011;17546;42.674;23.284;2024-03-29T02:26:12;9.32;;;2.20;;
30818;SDS011;17546;42.674;23.284;2024-03-29T02:28:38;7.90;;;1.80;;
30818;SDS011;17546;42.674;23.284;2024-03-29T02:31:04;7.57;;;1.80;;
30818;SDS011;17546;42.674;23.284;2024-03-29T02:33:29;9.93;;;2.00;;
30818;SDS011;17546;42.674;23.284;2024-03-29T02:35:55;6.80;;;1.63;;
30818;SDS011;17546;42.674;23.284;2024-03-29T02:38:20;8.60;;;1.50;;
30818;SDS011;17546;42.674;23.284;2024-03-29T02:40:46;7.43;;;1.60;;
30818;SDS011;17546;42.674;23.284;2024-03-29T02:43:11;6.13;;;1.65;;
30818;SDS011;17546;42.674;23.284;2024-03-29T02:45:37;10.15;;;2.08;;
30818;SDS011;17546;42.674;23.284;2024-03-29T02:48:03;4.53;;;1.63;;
30818;SDS011;17546;42.674;23.284;2024-03-29T02:50:29;8.32;;;2.15;;
30818;SDS011;17546;42.674;23.284;2024-03-29T02:52:54;8.93;;;1.95;;
30818;SDS011;17546;42.674;23.284;2024-03-29T02:55:19;7.10;;;1.77;;
30818;SDS011;17546;42.674;23.284;2024-03-29T02:57:45;7.28;;;2.03;;
30818;SDS011;17546;42.674;23.284;2024-03-29T03:00:11;7.25;;;2.03;;
30818;SDS011;17546;42.674;23.284;2024-03-29T03:02:40;12.50;;;2.10;;
30818;SDS011;17546;42.674;23.284;2024-03-29T03:05:06;10.50;;;2.40;;
30818;SDS011;17546;42.674;23.284;2024-03-29T03:07:32;8.95;;;2.08;;
30818;SDS011;17546;42.674;23.284;2024-03-29T03:10:17;6.93;;;2.10;;
30818;SDS011;17546;42.674;23.284;2024-03-29T03:13:01;7.25;;;2.20;;
30818;SDS011;17546;42.674;23.284;2024-03-29T03:15:27;10.73;;;2.05;;
30818;SDS011;17546;42.674;23.284;2024-03-29T03:17:53;15.57;;;2.72;;
30818;SDS011;17546;42.674;23.284;2024-03-29T03:20:18;9.43;;;1.90;;
30818;SDS011;17546;42.674;23.284;2024-03-29T03:22:44;17.58;;;2.20;;
30818;SDS011;17546;42.674;23.284;2024-03-29T03:25:10;23.83;;;3.17;;
30818;SDS011;17546;42.674;23.284;2024-03-29T03:27:35;10.88;;;2.03;;
30818;SDS011;17546;42.674;23.284;2024-03-29T03:30:01;34.15;;;3.30;;
30818;SDS011;17546;42.674;23.284;2024-03-29T03:32:26;6.68;;;2.03;;
30818;SDS011;17546;42.674;23.284;2024-03-29T03:34:52;13.30;;;2.00;;
30818;SDS011;17546;42.674;23.284;2024-03-29T03:37:17;14.25;;;2.25;;
30818;SDS011;17546;42.674;23.284;2024-03-29T03:39:43;9.55;;;2.33;;
30818;SDS011;17546;42.674;23.284;2024-03-29T03:42:08;6.47;;;2.15;;
30818;SDS011;17546;42.674;23.284;2024-03-29T03:44:34;8.32;;;2.17;;
30818;SDS011;17546;42.674;23.284;2024-03-29T03:46:59;6.15;;;1.98;;
30818;SDS011;17546;42.674;23.284;2024-03-29T03:49:25;8.60;;;1.90;;
30818;SDS011;17546;42.674;23.284;2024-03-29T03:51:50;16.40;;;2.58;;
30818;SDS011;17546;42.674;23.284;2024-03-29T03:54:15;8.20;;;2.25;;
30818;SDS011;17546;42.674;23.284;2024-03-29T03:56:41;10.40;;;2.20;;
30818;SDS011;17546;42.674;23.284;2024-03-29T03:59:06;15.73;;;2.75;;
30818;SDS011;17546;42.674;23.284;2024-03-29T04:01:32;11.65;;;2.42;;
30818;SDS011;17546;42.674;23.284;2024-03-29T04:03:59;17.08;;;2.67;;
30818;SDS011;17546;42.674;23.284;2024-03-29T04:06:24;8.90;;;2.45;;
30818;SDS011;17546;42.674;23.284;2024-03-29T04:08:50;12.35;;;3.00;;
30818;SDS011;17546;42.674;23.284;2024-03-29T04:11:15;9.25;;;2.95;;
30818;SDS011;17546;42.674;23.284;2024-03-29T04:13:42;18.38;;;3.40;;
30818;SDS011;17546;42.674;23.284;2024-03-29T04:16:08;12.93;;;2.80;;
30818;SDS011;17546;42.674;23.284;2024-03-29T04:18:33;9.15;;;2.97;;
30818;SDS011;17546;42.674;23.284;2024-03-29T04:20:59;13.63;;;3.00;;
30818;SDS011;17546;42.674;23.284;2024-03-29T04:23:26;14.00;;;2.40;;
30818;SDS011;17546;42.674;23.284;2024-03-29T04:25:52;10.90;;;2.70;;
30818;SDS011;17546;42.674;23.284;2024-03-29T04:28:19;8.80;;;2.17;;
30818;SDS011;17546;42.674;23.284;2024-03-29T04:33:36;13.38;;;2.25;;
30818;SDS011;17546;42.674;23.284;2024-03-29T04:36:02;10.18;;;2.05;;
30818;SDS011;17546;42.674;23.284;2024-03-29T04:38:29;18.70;;;2.33;;
30818;SDS011;17546;42.674;23.284;2024-03-29T04:40:56;10.80;;;2.63;;
30818;SDS011;17546;42.674;23.284;2024-03-29T04:43:23;19.05;;;2.97;;
30818;SDS011;17546;42.674;23.284;2024-03-29T04:45:49;22.58;;;2.70;;
30818;SDS011;17546;42.674;23.284;2024-03-29T04:48:15;10.25;;;2.63;;
30818;SDS011;17546;42.674;23.284;2024-03-29T04:50:41;15.82;;;2.45;;
30818;SDS011;17546;42.674;23.284;2024-03-29T04:53:07;12.18;;;2.20;;
30818;SDS011;17546;42.674;23.284;2024-03-29T04:55:33;15.80;;;2.42;;
30818;SDS011;17546;42.674;23.284;2024-03-29T04:58:00;12.13;;;2.47;;
30818;SDS011;17546;42.674;23.284;2024-03-29T05:00:25;23.05;;;2.20;;
30818;SDS011;17546;42.674;23.284;2024-03-29T05:02:51;8.93;;;2.28;;
30818;SDS011;17546;42.674;23.284;2024-03-29T05:05:16;28.20;;;2.55;;
30818;SDS011;17546;42.674;23.284;2024-03-29T05:07:42;11.52;;;2.78;;
30818;SDS011;17546;42.674;23.284;2024-03-29T05:10:07;16.92;;;2.35;;
30818;SDS011;17546;42.674;23.284;2024-03-29T05:12:35;32.00;;;9.32;;
30818;SDS011;17546;42.674;23.284;2024-03-29T05:15:01;33.80;;;8.80;;
30818;SDS011;17546;42.674;23.284;2024-03-29T05:17:27;16.13;;;5.90;;
30818;SDS011;17546;42.674;23.284;2024-03-29T05:19:53;14.75;;;3.50;;
30818;SDS011;17546;42.674;23.284;2024-03-29T05:22:19;20.95;;;4.70;;
30818;SDS011;17546;42.674;23.284;2024-03-29T05:24:44;22.00;;;4.28;;
30818;SDS011;17546;42.674;23.284;2024-03-29T05:27:11;20.83;;;3.85;;
30818;SDS011;17546;42.674;23.284;2024-03-29T05:29:37;24.10;;;3.25;;
30818;SDS011;17546;42.674;23.284;2024-03-29T05:32:04;15.82;;;3.95;;
30818;SDS011;17546;42.674;23.284;2024-03-29T05:34:30;11.15;;;3.28;;
30818;SDS011;17546;42.674;23.284;2024-03-29T05:36:56;18.50;;;3.10;;
30818;SDS011;17546;42.674;23.284;2024-03-29T05:39:22;11.77;;;3.17;;
30818;SDS011;17546;42.674;23.284;2024-03-29T05:41:47;15.13;;;3.22;;
30818;SDS011;17546;42.674;23.284;2024-03-29T05:44:13;17.65;;;3.10;;
30818;SDS011;17546;42.674;23.284;2024-03-29T05:46:38;18.08;;;3.03;;
30818;SDS011;17546;42.674;23.284;2024-03-29T05:49:05;26.70;;;3.40;;
30818;SDS011;17546;42.674;23.284;2024-03-29T05:51:31;17.75;;;3.40;;
30818;SDS011;17546;42.674;23.284;2024-03-29T05:53:57;14.73;;;3.15;;
30818;SDS011;17546;42.674;23.284;2024-03-29T05:56:22;15.55;;;3.78;;
30818;SDS011;17546;42.674;23.284;2024-03-29T05:58:48;15.63;;;3.90;;
30818;SDS011;17546;42.674;23.284;2024-03-29T06:01:13;20.50;;;4.93;;
30818;SDS011;17546;42.674;23.284;2024-03-29T06:03:43;25.02;;;4.60;;
30818;SDS011;17546;42.674;23.284;2024-03-29T06:06:08;22.73;;;4.45;;
30818;SDS011;17546;42.674;23.284;2024-03-29T06:08:42;15.43;;;3.38;;
30818;SDS011;17546;42.674;23.284;2024-03-29T06:11:07;15.13;;;3.50;;
30818;SDS011;17546;42.674;23.284;2024-03-29T06:13:33;21.80;;;2.50;;
30818;SDS011;17546;42.674;23.284;2024-03-29T06:16:17;12.27;;;2.33;;
30818;SDS011;17546;42.674;23.284;2024-03-29T06:19:01;9.60;;;1.52;;
30818;SDS011;17546;42.674;23.284;2024-03-29T06:21:27;7.25;;;1.80;;
30818;SDS011;17546;42.674;23.284;2024-03-29T06:23:52;7.35;;;1.42;;
30818;SDS011;17546;42.674;23.284;2024-03-29T06:26:18;6.78;;;1.30;;
30818;SDS011;17546;42.674;23.284;2024-03-29T06:28:44;6.65;;;1.58;;
30818;SDS011;17546;42.674;23.284;2024-03-29T06:31:10;9.85;;;1.77;;
30818;SDS011;17546;42.674;23.284;2024-03-29T06:33:35;8.73;;;1.80;;
30818;SDS011;17546;42.674;23.284;2024-03-29T06:36:01;10.18;;;1.80;;
30818;SDS011;17546;42.674;23.284;2024-03-29T06:38:26;11.80;;;1.35;;
30818;SDS011;17546;42.674;23.284;2024-03-29T06:40:52;11.07;;;1.40;;
30818;SDS011;17546;42.674;23.284;2024-03-29T06:43:17;8.38;;;1.40;;
30818;SDS011;17546;42.674;23.284;2024-03-29T06:45:44;4.03;;;1.10;;
30818;SDS011;17546;42.674;23.284;2024-03-29T06:48:10;6.97;;;1.30;;
30818;SDS011;17546;42.674;23.284;2024-03-29T06:50:37;7.75;;;1.63;;
30818;SDS011;17546;42.674;23.284;2024-03-29T06:53:02;8.15;;;1.40;;
30818;SDS011;17546;42.674;23.284;2024-03-29T06:55:29;10.32;;;1.58;;
30818;SDS011;17546;42.674;23.284;2024-03-29T06:57:55;8.63;;;1.95;;
30818;SDS011;17546;42.674;23.284;2024-03-29T07:00:21;10.25;;;1.70;;
30818;SDS011;17546;42.674;23.284;2024-03-29T07:02:46;5.45;;;1.35;;
30818;SDS011;17546;42.674;23.284;2024-03-29T07:05:12;6.88;;;1.30;;
30818;SDS011;17546;42.674;23.284;2024-03-29T07:07:37;12.30;;;1.70;;
30818;SDS011;17546;42.674;23.284;2024-03-29T07:10:05;6.72;;;1.40;;
30818;SDS011;17546;42.674;23.284;2024-03-29T07:12:31;5.32;;;1.38;;
30818;SDS011;17546;42.674;23.284;2024-03-29T07:14:57;10.02;;;1.75;;
30818;SDS011;17546;42.674;23.284;2024-03-29T07:17:22;9.88;;;1.45;;
30818;SDS011;17546;42.674;23.284;2024-03-29T07:19:48;7.47;;;1.30;;
30818;SDS011;17546;42.674;23.284;2024-03-29T07:22:13;8.63;;;1.50;;
30818;SDS011;17546;42.674;23.284;2024-03-29T07:24:38;10.48;;;1.83;;
30818;SDS011;17546;42.674;23.284;2024-03-29T07:27:04;6.50;;;1.20;;
30818;SDS011;17546;42.674;23.284;2024-03-29T07:29:29;5.80;;;1.45;;
30818;SDS011;17546;42.674;23.284;2024-03-29T07:31:59;11.27;;;1.60;;
30818;SDS011;17546;42.674;23.284;2024-03-29T07:34:24;6.70;;;1.67;;
30818;SDS011;17546;42.674;23.284;2024-03-29T07:36:50;8.70;;;1.30;;
30818;SDS011;17546;42.674;23.284;2024-03-29T07:39:15;9.05;;;1.83;;
30818;SDS011;17546;42.674;23.284;2024-03-29T07:41:41;15.18;;;1.67;;
30818;SDS011;17546;42.674;23.284;2024-03-29T07:44:06;14.15;;;1.30;;
30818;SDS011;17546;42.674;23.284;2024-03-29T07:46:33;4.25;;;1.40;;
30818;SDS011;17546;42.674;23.284;2024-03-29T07:49:00;5.82;;;1.30;;
30818;SDS011;17546;42.674;23.284;2024-03-29T07:51:26;7.72;;;1.50;;
30818;SDS011;17546;42.674;23.284;2024-03-29T07:53:51;7.50;;;1.67;;
30818;SDS011;17546;42.674;23.284;2024-03-29T07:56:17;10.55;;;1.48;;
30818;SDS011;17546;42.674;23.284;2024-03-29T07:58:43;7.82;;;1.33;;
30818;SDS011;17546;42.674;23.284;2024-03-29T08:01:09;5.85;;;1.05;;
30818;SDS011;17546;42.674;23.284;2024-03-29T08:03:35;8.45;;;1.30;;
30818;SDS011;17546;42.674;23.284;2024-03-29T08:06:01;6.50;;;1.55;;
30818;SDS011;17546;42.674;23.284;2024-03-29T08:08:31;7.35;;;1.75;;
30818;SDS011;17546;42.674;23.284;2024-03-29T08:10:58;7.32;;;1.27;;
30818;SDS011;17546;42.674;23.284;2024-03-29T08:13:24;7.05;;;1.95;;
30818;SDS011;17546;42.674;23.284;2024-03-29T08:16:00;13.20;;;1.35;;
30818;SDS011;17546;42.674;23.284;2024-03-29T08:18:26;8.82;;;1.42;;
30818;SDS011;17546;42.674;23.284;2024-03-29T08:20:53;8.73;;;1.67;;
30818;SDS011;17546;42.674;23.284;2024-03-29T08:23:20;6.90;;;1.23;;
30818;SDS011;17546;42.674;23.284;2024-03-29T08:25:46;9.48;;;1.42;;
30818;SDS011;17546;42.674;23.284;2024-03-29T08:28:13;6.38;;;1.38;;
30818;SDS011;17546;42.674;23.284;2024-03-29T08:30:38;5.70;;;1.40;;
30818;SDS011;17546;42.674;23.284;2024-03-29T08:33:04;8.88;;;1.55;;
30818;SDS011;17546;42.674;23.284;2024-03-29T08:35:30;18.08;;;1.35;;
30818;SDS011;17546;42.674;23.284;2024-03-29T08:37:57;10.27;;;1.60;;
30818;SDS011;17546;42.674;23.284;2024-03-29T08:40:23;8.15;;;1.25;;
30818;SDS011;17546;42.674;23.284;2024-03-29T08:42:49;4.32;;;1.27;;
30818;SDS011;17546;42.674;23.284;2024-03-29T08:45:15;8.45;;;1.50;;
30818;SDS011;17546;42.674;23.284;2024-03-29T08:47:41;10.35;;;1.30;;
30818;SDS011;17546;42.674;23.284;2024-03-29T08:50:07;6.50;;;1.55;;
30818;SDS011;17546;42.674;23.284;2024-03-29T08:52:33;6.22;;;1.65;;
30818;SDS011;17546;42.674;23.284;2024-03-29T08:54:59;9.25;;;1.60;;
30818;SDS011;17546;42.674;23.284;2024-03-29T08:57:24;5.10;;;1.42;;
30818;SDS011;17546;42.674;23.284;2024-03-29T08:59:50;7.53;;;1.42;;
30818;SDS011;17546;42.674;23.284;2024-03-29T09:02:15;15.68;;;2.30;;
30818;SDS011;17546;42.674;23.284;2024-03-29T09:04:41;10.38;;;1.63;;
30818;SDS011;17546;42.674;23.284;2024-03-29T09:07:06;6.53;;;1.40;;
30818;SDS011;17546;42.674;23.284;2024-03-29T09:09:32;8.65;;;1.92;;
30818;SDS011;17546;42.674;23.284;2024-03-29T09:11:58;5.82;;;1.20;;
30818;SDS011;17546;42.674;23.284;2024-03-29T09:14:24;6.53;;;1.20;;
30818;SDS011;17546;42.674;23.284;2024-03-29T09:16:50;4.22;;;1.27;;
30818;SDS011;17546;42.674;23.284;2024-03-29T09:19:15;7.40;;;1.30;;
30818;SDS011;17546;42.674;23.284;2024-03-29T09:21:41;5.30;;;1.52;;
30818;SDS011;17546;42.674;23.284;2024-03-29T09:24:07;7.57;;;1.40;;
30818;SDS011;17546;42.674;23.284;2024-03-29T09:26:32;8.00;;;1.35;;
30818;SDS011;17546;42.674;23.284;2024-03-29T09:29:00;9.63;;;1.70;;
30818;SDS011;17546;42.674;23.284;2024-03-29T09:31:25;5.50;;;1.30;;
30818;SDS011;17546;42.674;23.284;2024-03-29T09:33:52;12.52;;;2.50;;
30818;SDS011;17546;42.674;23.284;2024-03-29T09:36:21;17.70;;;2.88;;
30818;SDS011;17546;42.674;23.284;2024-03-29T09:38:50;14.27;;;3.13;;
30818;SDS011;17546;42.674;23.284;2024-03-29T09:41:16;7.20;;;2.60;;
30818;SDS011;17546;42.674;23.284;2024-03-29T09:43:47;9.80;;;2.38;;
30818;SDS011;17546;42.674;23.284;2024-03-29T09:46:13;10.55;;;2.08;;
30818;SDS011;17546;42.674;23.284;2024-03-29T09:48:43;7.75;;;1.55;;
30818;SDS011;17546;42.674;23.284;2024-03-29T09:51:12;5.63;;;1.67;;
30818;SDS011;17546;42.674;23.284;2024-03-29T09:53:40;9.55;;;1.63;;
30818;SDS011;17546;42.674;23.284;2024-03-29T09:56:07;9.50;;;1.30;;
30818;SDS011;17546;42.674;23.284;2024-03-29T09:58:33;10.52;;;1.63;;
30818;SDS011;17546;42.674;23.284;2024-03-29T10:01:03;6.85;;;1.50;;
30818;SDS011;17546;42.674;23.284;2024-03-29T10:03:29;8.48;;;1.75;;
30818;SDS011;17546;42.674;23.284;2024-03-29T10:05:57;7.45;;;1.60;;
30818;SDS011;17546;42.674;23.284;2024-03-29T10:08:27;4.90;;;1.25;;
30818;SDS011;17546;42.674;23.284;2024-03-29T10:10:55;15.70;;;2.00;;
30818;SDS011;17546;42.674;23.284;2024-03-29T10:13:21;9.23;;;2.08;;
30818;SDS011;17546;42.674;23.284;2024-03-29T10:15:48;6.15;;;1.60;;
30818;SDS011;17546;42.674;23.284;2024-03-29T10:18:20;7.88;;;1.50;;
30818;SDS011;17546;42.674;23.284;2024-03-29T10:20:46;11.07;;;1.77;;
30818;SDS011;17546;42.674;23.284;2024-03-29T10:23:11;8.80;;;1.85;;
30818;SDS011;17546;42.674;23.284;2024-03-29T10:25:37;7.65;;;1.73;;
30818;SDS011;17546;42.674;23.284;2024-03-29T10:28:03;6.60;;;1.88;;
30818;SDS011;17546;42.674;23.284;2024-03-29T10:30:29;9.30;;;1.80;;
30818;SDS011;17546;42.674;23.284;2024-03-29T10:32:57;13.75;;;1.70;;
30818;SDS011;17546;42.674;23.284;2024-03-29T10:35:26;13.68;;;2.30;;
30818;SDS011;17546;42.674;23.284;2024-03-29T10:37:54;9.35;;;1.63;;
30818;SDS011;17546;42.674;23.284;2024-03-29T10:40:23;6.75;;;1.60;;
30818;SDS011;17546;42.674;23.284;2024-03-29T10:42:50;7.88;;;1.50;;
30818;SDS011;17546;42.674;23.284;2024-03-29T10:45:17;6.55;;;1.58;;
30818;SDS011;17546;42.674;23.284;2024-03-29T10:47:43;6.25;;;1.63;;
30818;SDS011;17546;42.674;23.284;2024-03-29T10:50:12;11.40;;;1.70;;
30818;SDS011;17546;42.674;23.284;2024-03-29T10:52:41;6.05;;;1.63;;
30818;SDS011;17546;42.674;23.284;2024-03-29T10:55:11;11.80;;;2.13;;
30818;SDS011;17546;42.674;23.284;2024-03-29T10:57:40;8.18;;;1.50;;
30818;SDS011;17546;42.674;23.284;2024-03-29T11:00:13;11.73;;;1.95;;
30818;SDS011;17546;42.674;23.284;2024-03-29T11:05:28;10.82;;;2.20;;
30818;SDS011;17546;42.674;23.284;2024-03-29T11:07:56;8.88;;;2.20;;
30818;SDS011;17546;42.674;23.284;2024-03-29T11:13:27;9.35;;;1.90;;
30818;SDS011;17546;42.674;23.284;2024-03-29T11:16:05;10.90;;;1.80;;
30818;SDS011;17546;42.674;23.284;2024-03-29T11:18:30;8.35;;;1.70;;
30818;SDS011;17546;42.674;23.284;2024-03-29T11:20:57;14.68;;;1.70;;
30818;SDS011;17546;42.674;23.284;2024-03-29T11:23:24;11.15;;;1.95;;
30818;SDS011;17546;42.674;23.284;2024-03-29T11:25:55;9.10;;;2.92;;
30818;SDS011;17546;42.674;23.284;2024-03-29T11:28:33;6.68;;;2.05;;
30818;SDS011;17546;42.674;23.284;2024-03-29T11:31:00;10.73;;;3.10;;
30818;SDS011;17546;42.674;23.284;2024-03-29T11:33:32;14.65;;;2.78;;
30818;SDS011;17546;42.674;23.284;2024-03-29T11:36:11;8.98;;;2.78;;
30818;SDS011;17546;42.674;23.284;2024-03-29T11:38:56;8.75;;;1.92;;
30818;SDS011;17546;42.674;23.284;2024-03-29T11:41:23;7.72;;;2.20;;
30818;SDS011;17546;42.674;23.284;2024-03-29T11:43:54;11.15;;;3.25;;
30818;SDS011;17546;42.674;23.284;2024-03-29T11:46:21;12.05;;;2.50;;
30818;SDS011;17546;42.674;23.284;2024-03-29T11:48:47;10.18;;;2.00;;
30818;SDS011;17546;42.674;23.284;2024-03-29T11:51:18;9.65;;;1.83;;
30818;SDS011;17546;42.674;23.284;2024-03-29T11:53:47;12.68;;;1.98;;
30818;SDS011;17546;42.674;23.284;2024-03-29T11:56:13;7.75;;;2.08;;
30818;SDS011;17546;42.674;23.284;2024-03-29T11:58:39;14.85;;;2.85;;
30818;SDS011;17546;42.674;23.284;2024-03-29T12:01:05;8.05;;;1.60;;
30818;SDS011;17546;42.674;23.284;2024-03-29T12:03:31;14.48;;;1.90;;
30818;SDS011;17546;42.674;23.284;2024-03-29T12:05:58;7.78;;;1.70;;
30818;SDS011;17546;42.674;23.284;2024-03-29T12:08:30;11.48;;;2.40;;
30818;SDS011;17546;42.674;23.284;2024-03-29T12:11:01;15.48;;;2.72;;
30818;SDS011;17546;42.674;23.284;2024-03-29T12:13:28;15.45;;;2.00;;
30818;SDS011;17546;42.674;23.284;2024-03-29T12:15:54;7.18;;;2.15;;
30818;SDS011;17546;42.674;23.284;2024-03-29T12:18:21;13.63;;;2.03;;
30818;SDS011;17546;42.674;23.284;2024-03-29T12:20:48;7.38;;;1.60;;
30818;SDS011;17546;42.674;23.284;2024-03-29T12:23:17;10.63;;;1.90;;
30818;SDS011;17546;42.674;23.284;2024-03-29T12:25:44;10.02;;;1.83;;
30818;SDS011;17546;42.674;23.284;2024-03-29T12:28:11;10.73;;;1.65;;
30818;SDS011;17546;42.674;23.284;2024-03-29T12:30:46;6.82;;;2.00;;
30818;SDS011;17546;42.674;23.284;2024-03-29T12:33:16;7.43;;;1.60;;
30818;SDS011;17546;42.674;23.284;2024-03-29T12:35:46;10.48;;;1.67;;
30818;SDS011;17546;42.674;23.284;2024-03-29T12:38:19;5.40;;;1.30;;
30818;SDS011;17546;42.674;23.284;2024-03-29T12:40:46;11.77;;;1.60;;
30818;SDS011;17546;42.674;23.284;2024-03-29T12:43:13;9.38;;;2.03;;
30818;SDS011;17546;42.674;23.284;2024-03-29T12:45:42;6.03;;;1.90;;
30818;SDS011;17546;42.674;23.284;2024-03-29T12:48:15;13.77;;;2.00;;
30818;SDS011;17546;42.674;23.284;2024-03-29T12:50:43;8.68;;;2.08;;
30818;SDS011;17546;42.674;23.284;2024-03-29T12:53:11;9.25;;;1.50;;
30818;SDS011;17546;42.674;23.284;2024-03-29T12:55:41;7.63;;;2.00;;
30818;SDS011;17546;42.674;23.284;2024-03-29T12:58:17;8.13;;;1.80;;
30818;SDS011;17546;42.674;23.284;2024-03-29T13:00:47;45.70;;;2.85;;
30818;SDS011;17546;42.674;23.284;2024-03-29T13:03:12;12.95;;;1.65;;
30818;SDS011;17546;42.674;23.284;2024-03-29T13:05:38;5.93;;;1.30;;
30818;SDS011;17546;42.674;23.284;2024-03-29T13:08:07;4.32;;;1.00;;
30818;SDS011;17546;42.674;23.284;2024-03-29T13:10:37;4.03;;;1.20;;
30818;SDS011;17546;42.674;23.284;2024-03-29T13:13:04;5.30;;;1.10;;
30818;SDS011;17546;42.674;23.284;2024-03-29T13:15:32;10.93;;;1.20;;
30818;SDS011;17546;42.674;23.284;2024-03-29T13:17:59;5.53;;;1.25;;
30818;SDS011;17546;42.674;23.284;2024-03-29T13:20:25;7.50;;;1.58;;
30818;SDS011;17546;42.674;23.284;2024-03-29T13:22:51;5.80;;;1.02;;
30818;SDS011;17546;42.674;23.284;2024-03-29T13:25:19;4.82;;;1.25;;
30818;SDS011;17546;42.674;23.284;2024-03-29T13:27:46;7.07;;;1.40;;
30818;SDS011;17546;42.674;23.284;2024-03-29T13:30:14;6.80;;;1.33;;
30818;SDS011;17546;42.674;23.284;2024-03-29T13:32:41;3.50;;;1.10;;
30818;SDS011;17546;42.674;23.284;2024-03-29T13:35:07;18.60;;;1.60;;
30818;SDS011;17546;42.674;23.284;2024-03-29T13:37:37;3.78;;;1.05;;
30818;SDS011;17546;42.674;23.284;2024-03-29T13:40:12;7.47;;;1.50;;
30818;SDS011;17546;42.674;23.284;2024-03-29T13:42:38;6.07;;;1.30;;
30818;SDS011;17546;42.674;23.284;2024-03-29T13:45:05;4.43;;;1.13;;
30818;SDS011;17546;42.674;23.284;2024-03-29T13:47:34;6.95;;;1.30;;
30818;SDS011;17546;42.674;23.284;2024-03-29T13:50:07;7.68;;;1.23;;
30818;SDS011;17546;42.674;23.284;2024-03-29T13:52:33;5.07;;;1.35;;
30818;SDS011;17546;42.674;23.284;2024-03-29T13:54:59;6.85;;;1.20;;
30818;SDS011;17546;42.674;23.284;2024-03-29T13:57:25;2.25;;;0.93;;
30818;SDS011;17546;42.674;23.284;2024-03-29T13:59:51;8.38;;;1.30;;
30818;SDS011;17546;42.674;23.284;2024-03-29T14:02:18;3.28;;;1.10;;
30818;SDS011;17546;42.674;23.284;2024-03-29T14:04:45;10.40;;;1.42;;
30818;SDS011;17546;42.674;23.284;2024-03-29T14:07:12;8.52;;;1.27;;
30818;SDS011;17546;42.674;23.284;2024-03-29T14:09:41;10.75;;;1.48;;
30818;SDS011;17546;42.674;23.284;2024-03-29T14:12:08;9.25;;;1.33;;
30818;SDS011;17546;42.674;23.284;2024-03-29T14:14:34;11.52;;;1.42;;
30818;SDS011;17546;42.674;23.284;2024-03-29T14:16:59;4.82;;;1.52;;
30818;SDS011;17546;42.674;23.284;2024-03-29T14:19:34;6.25;;;1.25;;
30818;SDS011;17546;42.674;23.284;2024-03-29T14:22:01;9.18;;;1.13;;
30818;SDS011;17546;42.674;23.284;2024-03-29T14:24:27;4.65;;;1.05;;
30818;SDS011;17546;42.674;23.284;2024-03-29T14:26:55;4.95;;;1.45;;
30818;SDS011;17546;42.674;23.284;2024-03-29T14:29:24;8.90;;;1.38;;
30818;SDS011;17546;42.674;23.284;2024-03-29T14:31:49;3.05;;;1.05;;
30818;SDS011;17546;42.674;23.284;2024-03-29T14:34:16;2.25;;;0.80;;
30818;SDS011;17546;42.674;23.284;2024-03-29T14:36:42;5.15;;;1.20;;
30818;SDS011;17546;42.674;23.284;2024-03-29T14:39:08;5.57;;;1.00;;